Time;durP1;ratioP1;P1;durP2;ratioP2;P2;SDS_P1;SDS_P2;PMS_P1;PMS_P2;Temp;Humidity;BMP_temperature;BMP_pressure;BME280_temperature;BME280_humidity;BME280_pressure;Samples;Min_cycle;Max_cycle;Signal;HPM_P1;HPM_P2
2024/01/01 00:01:12;;;;;;;189.53;125.40;;;8.10;99.90;;;;;;4975521;28;39110;-80
2024/01/01 00:03:39;;;;;;;60.13;33.40;;;8.10;99.90;;;;;;4979099;28;39276;-80
2024/01/01 00:06:05;;;;;;;41.60;21.93;;;8.10;99.90;;;;;;4975235;28;36810;-79
2024/01/01 00:08:31;;;;;;;34.93;21.43;;;8.00;99.90;;;;;;4965376;28;38762;-79
2024/01/01 00:10:57;;;;;;;37.43;19.43;;;8.00;99.90;;;;;;4969156;28;36206;-79
2024/01/01 00:13:23;;;;;;;56.00;29.20;;;8.00;99.90;;;;;;4963581;28;39515;-79
2024/01/01 00:15:49;;;;;;;41.27;20.17;;;8.00;99.90;;;;;;4982980;28;38779;-77
2024/01/01 00:18:16;;;;;;;38.90;22.60;;;8.00;99.90;;;;;;4961320;28;38795;-78
2024/01/01 00:20:42;;;;;;;42.03;23.43;;;8.00;99.90;;;;;;4963724;28;38306;-77
2024/01/01 00:23:08;;;;;;;43.30;26.57;;;7.90;99.90;;;;;;4960657;28;39644;-78
2024/01/01 00:25:36;;;;;;;33.73;17.13;;;7.90;99.90;;;;;;4962157;28;37260;-78
2024/01/01 00:28:08;;;;;;;31.40;16.23;;;7.90;99.90;;;;;;4959351;28;39206;-78
2024/01/01 00:30:35;;;;;;;24.53;13.43;;;7.90;99.90;;;;;;4957103;28;39148;-78
2024/01/01 00:33:01;;;;;;;27.90;11.30;;;7.80;99.90;;;;;;4962545;28;39668;-78
2024/01/01 00:35:27;;;;;;;30.80;13.40;;;7.80;99.90;;;;;;4957148;28;40169;-78
2024/01/01 00:37:54;;;;;;;24.67;12.60;;;7.80;99.90;;;;;;4963642;28;39532;-77
2024/01/01 00:40:23;;;;;;;23.97;10.23;;;7.70;99.90;;;;;;4965736;28;37531;-78
2024/01/01 00:42:49;;;;;;;27.17;11.00;;;7.80;99.90;;;;;;4963600;28;37491;-78
2024/01/01 00:45:15;;;;;;;31.73;13.33;;;7.80;99.90;;;;;;4980742;28;38788;-78
2024/01/01 00:47:41;;;;;;;52.03;16.33;;;7.80;99.90;;;;;;4969768;28;38556;-78
2024/01/01 00:50:08;;;;;;;21.07;7.87;;;7.80;99.90;;;;;;4973842;28;37150;-78
2024/01/01 00:52:35;;;;;;;28.47;9.13;;;7.90;99.90;;;;;;4972965;28;20048;-77
2024/01/01 00:55:03;;;;;;;30.17;11.83;;;7.90;99.90;;;;;;4972653;28;40130;-78
2024/01/01 00:57:29;;;;;;;29.37;12.60;;;7.90;99.90;;;;;;4968327;28;47297;-78
2024/01/01 00:59:55;;;;;;;35.23;16.67;;;7.90;99.90;;;;;;4973429;28;37653;-78
2024/01/01 01:02:21;;;;;;;66.80;39.80;;;8.00;99.90;;;;;;4971626;28;37663;-77
2024/01/01 01:04:47;;;;;;;30.80;13.37;;;8.00;99.90;;;;;;4974554;28;39034;-78
2024/01/01 01:07:14;;;;;;;24.77;9.60;;;7.90;99.90;;;;;;4986730;28;38938;-78
2024/01/01 01:09:41;;;;;;;26.13;12.73;;;7.90;99.90;;;;;;4969213;28;37955;-78
2024/01/01 01:12:07;;;;;;;57.10;32.30;;;7.90;99.90;;;;;;4970353;28;37345;-78
2024/01/01 01:14:33;;;;;;;99.17;62.83;;;7.90;99.90;;;;;;4971922;28;38607;-78
2024/01/01 01:16:59;;;;;;;45.87;23.83;;;7.90;99.90;;;;;;4968912;28;38390;-78
2024/01/01 01:19:26;;;;;;;34.73;12.77;;;7.80;99.90;;;;;;4975125;28;36104;-77
2024/01/01 01:21:52;;;;;;;32.97;12.43;;;7.80;99.90;;;;;;4969768;28;38757;-77
2024/01/01 01:24:18;;;;;;;32.13;13.03;;;7.80;99.90;;;;;;4972045;28;38765;-77
2024/01/01 01:26:44;;;;;;;30.63;15.67;;;7.70;99.90;;;;;;4969266;28;38306;-78
2024/01/01 01:29:13;;;;;;;24.37;13.03;;;7.70;99.90;;;;;;4958716;28;37681;-78
2024/01/01 01:31:45;;;;;;;45.90;14.90;;;7.70;99.90;;;;;;4966092;28;38753;-78
2024/01/01 01:34:12;;;;;;;30.70;6.57;;;7.70;99.90;;;;;;4985124;28;37552;-78
2024/01/01 01:36:39;;;;;;;21.73;5.20;;;7.70;99.90;;;;;;4990085;28;36947;-78
2024/01/01 01:39:05;;;;;;;18.30;4.23;;;7.70;99.90;;;;;;4971041;28;34693;-78
2024/01/01 01:41:31;;;;;;;20.53;6.27;;;7.70;99.90;;;;;;4972608;28;39548;-79
2024/01/01 01:43:57;;;;;;;21.87;4.97;;;7.70;99.90;;;;;;4970976;28;39507;-77
2024/01/01 01:46:25;;;;;;;16.43;4.93;;;7.70;99.90;;;;;;4969760;28;38407;-77
2024/01/01 01:48:51;;;;;;;24.90;4.80;;;7.70;99.90;;;;;;4971960;28;37194;-77
2024/01/01 01:51:17;;;;;;;21.30;4.87;;;7.70;99.90;;;;;;4964829;28;39079;-78
2024/01/01 01:53:44;;;;;;;27.47;6.97;;;7.70;99.90;;;;;;4971306;28;37855;-77
2024/01/01 01:56:11;;;;;;;22.70;6.50;;;7.70;99.90;;;;;;4970296;28;39125;-77
2024/01/01 01:58:40;;;;;;;17.97;6.67;;;7.70;99.90;;;;;;4971211;28;37745;-77
2024/01/01 02:03:44;;;;;;;23.70;6.17;;;7.70;99.90;;;;;;5076648;23;20059;-79
2024/01/01 02:06:11;;;;;;;28.80;7.50;;;7.70;99.90;;;;;;4966831;28;38872;-79
2024/01/01 02:08:37;;;;;;;40.57;15.53;;;7.70;99.90;;;;;;4971190;28;37067;-78
2024/01/01 02:11:03;;;;;;;28.67;7.30;;;7.70;99.90;;;;;;4970563;28;39846;-79
2024/01/01 02:13:30;;;;;;;27.00;5.20;;;7.70;99.90;;;;;;4967370;28;39989;-79
2024/01/01 02:15:57;;;;;;;34.17;5.00;;;7.70;99.90;;;;;;4962560;28;39003;-79
2024/01/01 02:18:25;;;;;;;29.20;5.17;;;7.80;99.90;;;;;;4964697;28;35797;-78
2024/01/01 02:20:51;;;;;;;25.83;5.30;;;7.80;99.90;;;;;;4962042;28;40186;-78
2024/01/01 02:23:18;;;;;;;28.67;5.27;;;7.80;99.90;;;;;;4968846;28;38337;-79
2024/01/01 02:25:45;;;;;;;29.90;4.90;;;7.80;99.90;;;;;;4960507;28;37952;-79
2024/01/01 02:28:11;;;;;;;25.90;6.37;;;7.90;99.90;;;;;;4966947;28;38238;-78
2024/01/01 02:30:38;;;;;;;30.33;4.90;;;7.90;99.90;;;;;;4965560;28;38109;-79
2024/01/01 02:33:08;;;;;;;24.50;5.47;;;7.90;99.90;;;;;;4971074;28;38181;-78
2024/01/01 02:35:35;;;;;;;33.10;6.77;;;7.90;99.90;;;;;;4966611;28;38223;-79
2024/01/01 02:38:04;;;;;;;22.93;4.70;;;8.00;99.90;;;;;;4965938;28;37748;-79
2024/01/01 02:40:37;;;;;;;22.80;4.63;;;8.00;99.90;;;;;;4974785;28;47046;-79
2024/01/01 02:43:04;;;;;;;23.37;4.70;;;8.00;99.90;;;;;;4962912;28;39206;-79
2024/01/01 02:45:31;;;;;;;23.80;5.37;;;8.00;99.90;;;;;;4970969;28;38501;-79
2024/01/01 02:47:57;;;;;;;22.50;5.17;;;8.00;99.90;;;;;;4971184;28;37978;-79
2024/01/01 02:50:25;;;;;;;28.97;5.37;;;8.00;99.90;;;;;;4965996;28;39348;-79
2024/01/01 02:52:51;;;;;;;25.27;4.77;;;8.00;99.90;;;;;;4967800;28;38527;-80
2024/01/01 02:55:18;;;;;;;28.10;5.13;;;8.00;99.90;;;;;;4971625;28;38097;-78
2024/01/01 02:57:44;;;;;;;26.87;6.53;;;8.00;99.90;;;;;;4972406;28;38044;-79
2024/01/01 03:00:14;;;;;;;19.67;4.50;;;8.00;99.90;;;;;;4970434;28;40711;-78
2024/01/01 03:02:41;;;;;;;33.17;5.23;;;8.00;99.90;;;;;;4965734;28;40430;-79
2024/01/01 03:05:08;;;;;;;31.67;4.93;;;8.00;99.90;;;;;;4969228;28;39146;-79
2024/01/01 03:07:34;;;;;;;32.43;4.40;;;8.00;99.90;;;;;;4972476;28;37570;-79
2024/01/01 03:10:00;;;;;;;32.20;5.30;;;8.00;99.90;;;;;;4966012;28;39739;-79
2024/01/01 03:12:27;;;;;;;23.33;4.27;;;8.00;99.90;;;;;;4964189;28;38760;-78
2024/01/01 03:14:53;;;;;;;25.67;4.67;;;8.00;99.90;;;;;;4964545;28;38049;-79
2024/01/01 03:17:19;;;;;;;37.33;5.37;;;8.10;99.90;;;;;;4964560;28;37350;-78
2024/01/01 03:19:45;;;;;;;35.27;5.73;;;8.00;99.90;;;;;;4965754;28;39674;-78
2024/01/01 03:22:11;;;;;;;34.07;5.53;;;8.10;99.90;;;;;;4965899;28;38912;-79
2024/01/01 03:24:38;;;;;;;25.97;5.37;;;8.10;99.90;;;;;;4960813;28;38754;-79
2024/01/01 03:27:04;;;;;;;32.37;5.30;;;8.10;99.90;;;;;;4963576;28;38978;-78
2024/01/01 03:29:30;;;;;;;28.67;5.40;;;8.20;99.90;;;;;;4963803;28;38903;-79
2024/01/01 03:31:56;;;;;;;29.17;5.03;;;8.10;99.90;;;;;;4964459;28;38296;-79
2024/01/01 03:34:23;;;;;;;35.30;5.33;;;8.10;99.90;;;;;;4966401;28;38514;-80
2024/01/01 03:36:50;;;;;;;27.40;5.00;;;8.20;99.90;;;;;;4963391;28;37763;-79
2024/01/01 03:39:16;;;;;;;24.07;5.37;;;8.20;99.90;;;;;;4960312;28;40404;-79
2024/01/01 03:41:45;;;;;;;32.50;5.27;;;8.20;99.90;;;;;;4968156;28;39000;-78
2024/01/01 03:44:12;;;;;;;23.00;4.60;;;8.10;99.90;;;;;;4967267;28;40867;-79
2024/01/01 03:46:38;;;;;;;29.23;4.80;;;8.10;99.90;;;;;;4967029;28;36516;-79
2024/01/01 03:49:04;;;;;;;39.50;5.27;;;8.10;99.90;;;;;;4963625;28;41716;-79
2024/01/01 03:51:31;;;;;;;34.27;5.87;;;8.10;99.90;;;;;;4966428;28;38237;-79
2024/01/01 03:53:58;;;;;;;35.00;4.53;;;8.10;99.90;;;;;;4966695;28;36995;-79
2024/01/01 03:56:24;;;;;;;30.70;6.20;;;8.10;99.90;;;;;;4964607;28;38444;-79
2024/01/01 03:58:50;;;;;;;34.30;4.83;;;8.10;99.90;;;;;;4965329;28;38893;-78
2024/01/01 04:01:16;;;;;;;28.80;4.30;;;8.10;99.90;;;;;;4965934;28;38175;-78
2024/01/01 04:03:43;;;;;;;28.13;4.53;;;8.10;99.90;;;;;;4965232;28;38396;-78
2024/01/01 04:06:09;;;;;;;23.73;4.00;;;8.10;99.90;;;;;;4957866;28;38097;-79
2024/01/01 04:08:36;;;;;;;27.20;4.50;;;8.10;99.90;;;;;;4965172;28;39913;-79
2024/01/01 04:11:02;;;;;;;28.70;4.20;;;8.10;99.90;;;;;;4967157;28;36995;-79
2024/01/01 04:13:28;;;;;;;23.57;3.47;;;8.10;99.90;;;;;;4960232;28;39025;-79
2024/01/01 04:15:54;;;;;;;35.60;4.60;;;8.10;99.90;;;;;;4961587;28;38659;-78
2024/01/01 04:18:20;;;;;;;33.27;4.67;;;8.10;99.90;;;;;;4961526;28;40366;-78
2024/01/01 04:20:46;;;;;;;24.47;4.00;;;8.10;99.90;;;;;;4964569;28;39034;-79
2024/01/01 04:23:13;;;;;;;41.07;10.93;;;8.20;99.90;;;;;;4963198;28;38960;-79
2024/01/01 04:25:39;;;;;;;29.77;5.07;;;8.20;99.90;;;;;;4965264;28;37586;-78
2024/01/01 04:28:05;;;;;;;24.17;4.57;;;8.20;99.90;;;;;;4963150;28;37673;-78
2024/01/01 04:30:31;;;;;;;27.57;4.43;;;8.20;99.90;;;;;;4969565;28;38268;-80
2024/01/01 04:32:57;;;;;;;21.20;3.50;;;8.20;99.90;;;;;;4972821;28;38360;-79
2024/01/01 04:35:23;;;;;;;30.17;5.03;;;8.30;99.90;;;;;;4966180;28;37180;-78
2024/01/01 04:37:49;;;;;;;21.10;3.70;;;8.30;99.90;;;;;;4968375;28;37407;-79
2024/01/01 04:40:16;;;;;;;28.27;3.93;;;8.30;99.90;;;;;;4976829;28;39168;-79
2024/01/01 04:42:42;;;;;;;22.27;4.27;;;8.30;99.90;;;;;;4972575;28;37916;-79
2024/01/01 04:45:10;;;;;;;21.57;3.63;;;8.30;99.90;;;;;;4969866;28;38170;-78
2024/01/01 04:47:36;;;;;;;27.17;4.77;;;8.30;99.90;;;;;;4968199;28;39180;-79
2024/01/01 04:50:04;;;;;;;31.23;4.00;;;8.30;99.90;;;;;;4979439;28;36766;-79
2024/01/01 04:52:30;;;;;;;22.87;3.47;;;8.30;99.90;;;;;;4976093;28;49965;-79
2024/01/01 04:54:56;;;;;;;26.70;4.60;;;8.30;99.90;;;;;;4977401;28;37799;-80
2024/01/01 04:57:22;;;;;;;23.93;3.97;;;8.30;99.90;;;;;;4974621;28;37535;-79
2024/01/01 04:59:48;;;;;;;29.70;5.87;;;8.30;99.90;;;;;;4978122;28;39104;-81
2024/01/01 05:02:15;;;;;;;22.03;4.17;;;8.30;99.90;;;;;;4967593;28;37538;-79
2024/01/01 05:04:41;;;;;;;26.10;5.53;;;8.30;99.90;;;;;;4978982;28;37157;-79
2024/01/01 05:07:07;;;;;;;20.70;4.27;;;8.30;99.90;;;;;;4977168;28;38401;-78
2024/01/01 05:09:33;;;;;;;23.37;3.77;;;8.30;99.90;;;;;;4973855;28;39761;-79
2024/01/01 05:12:00;;;;;;;29.90;4.77;;;8.40;99.90;;;;;;4973249;28;37515;-79
2024/01/01 05:14:26;;;;;;;17.43;4.87;;;8.40;99.90;;;;;;4970794;28;38236;-79
2024/01/01 05:16:52;;;;;;;20.23;4.73;;;8.40;99.90;;;;;;4977218;28;39180;-81
2024/01/01 05:19:18;;;;;;;17.20;3.33;;;8.30;99.90;;;;;;4970214;28;38493;-79
2024/01/01 05:21:44;;;;;;;21.67;3.70;;;8.30;99.90;;;;;;4983991;28;38676;-79
2024/01/01 05:24:10;;;;;;;26.77;3.80;;;8.30;99.90;;;;;;4964411;28;37468;-78
2024/01/01 05:26:36;;;;;;;23.13;3.23;;;8.30;99.90;;;;;;4970298;28;41039;-79
2024/01/01 05:29:02;;;;;;;17.70;2.87;;;8.30;99.90;;;;;;4970119;28;35463;-79
2024/01/01 05:31:28;;;;;;;22.53;2.83;;;8.30;99.90;;;;;;4966877;28;37078;-79
2024/01/01 05:33:54;;;;;;;26.27;3.53;;;8.30;99.90;;;;;;4973659;28;38243;-79
2024/01/01 05:36:20;;;;;;;26.00;3.90;;;8.20;99.90;;;;;;4969679;28;37733;-79
2024/01/01 05:38:47;;;;;;;17.53;3.17;;;8.20;99.90;;;;;;4968832;28;40113;-79
2024/01/01 05:41:13;;;;;;;19.07;3.20;;;8.20;99.90;;;;;;4968778;28;38017;-79
2024/01/01 05:43:39;;;;;;;24.03;3.43;;;8.20;99.90;;;;;;4970216;28;37893;-79
2024/01/01 05:46:06;;;;;;;21.23;4.37;;;8.20;99.90;;;;;;4971326;28;40973;-79
2024/01/01 05:48:32;;;;;;;22.27;3.70;;;8.20;99.90;;;;;;4971074;28;38087;-79
2024/01/01 05:50:58;;;;;;;21.80;4.00;;;8.20;99.90;;;;;;4969190;28;38239;-79
2024/01/01 05:53:24;;;;;;;24.53;3.10;;;8.20;99.90;;;;;;4968845;28;37802;-79
2024/01/01 05:55:50;;;;;;;22.17;4.13;;;8.20;99.90;;;;;;4966164;28;40328;-79
2024/01/01 05:58:16;;;;;;;21.93;3.60;;;8.20;99.90;;;;;;4965643;28;38417;-79
2024/01/01 06:00:42;;;;;;;29.17;3.63;;;8.20;99.90;;;;;;4967696;28;38586;-79
2024/01/01 06:03:09;;;;;;;29.70;3.90;;;8.10;99.90;;;;;;4968332;28;37918;-80
2024/01/01 06:05:35;;;;;;;28.33;3.60;;;8.10;99.90;;;;;;4968660;28;38611;-79
2024/01/01 06:08:03;;;;;;;25.80;4.10;;;8.10;99.90;;;;;;4961003;28;38313;-79
2024/01/01 06:10:29;;;;;;;22.77;3.70;;;8.10;99.90;;;;;;4964097;28;41682;-79
2024/01/01 06:12:56;;;;;;;27.57;3.67;;;8.10;99.90;;;;;;4966394;28;38480;-80
2024/01/01 06:15:23;;;;;;;26.33;3.57;;;8.10;99.90;;;;;;4963385;28;39147;-79
2024/01/01 06:17:50;;;;;;;22.17;3.40;;;8.10;99.90;;;;;;4967721;28;39293;-80
2024/01/01 06:20:16;;;;;;;21.90;4.23;;;8.10;99.90;;;;;;4963644;28;38994;-79
2024/01/01 06:22:45;;;;;;;24.13;3.53;;;8.10;99.90;;;;;;4962632;28;37028;-79
2024/01/01 06:25:11;;;;;;;22.17;3.23;;;8.10;99.90;;;;;;4963744;28;38032;-79
2024/01/01 06:27:38;;;;;;;29.57;4.10;;;8.10;99.90;;;;;;4960731;28;39409;-80
2024/01/01 06:30:05;;;;;;;23.10;3.20;;;8.10;99.90;;;;;;4966080;28;38262;-79
2024/01/01 06:32:32;;;;;;;18.43;3.07;;;8.10;99.90;;;;;;4964847;28;47259;-80
2024/01/01 06:34:58;;;;;;;22.87;3.83;;;8.10;99.90;;;;;;4970750;28;37561;-79
2024/01/01 06:37:24;;;;;;;23.27;3.73;;;8.10;99.90;;;;;;4967738;28;37508;-79
2024/01/01 06:39:50;;;;;;;20.10;3.90;;;8.10;99.90;;;;;;4969804;28;37606;-79
2024/01/01 06:42:17;;;;;;;27.20;3.93;;;8.10;99.90;;;;;;4968594;28;36151;-79
2024/01/01 06:44:43;;;;;;;24.50;4.63;;;8.10;99.90;;;;;;4970887;28;39811;-79
2024/01/01 06:47:09;;;;;;;18.07;3.27;;;8.10;99.90;;;;;;4967200;28;37595;-79
2024/01/01 06:49:36;;;;;;;23.37;4.73;;;8.20;99.90;;;;;;4967951;28;37335;-79
2024/01/01 06:52:03;;;;;;;23.77;4.03;;;8.20;99.90;;;;;;4968536;28;36434;-79
2024/01/01 06:54:29;;;;;;;26.03;3.47;;;8.20;99.90;;;;;;4969282;28;38619;-80
2024/01/01 06:56:55;;;;;;;21.07;4.03;;;8.20;99.90;;;;;;4965991;28;37578;-79
2024/01/01 06:59:27;;;;;;;27.37;3.40;;;8.10;99.90;;;;;;4963584;28;37132;-79
2024/01/01 07:01:53;;;;;;;24.70;3.25;;;8.10;99.90;;;;;;4964936;28;35998;-79
2024/01/01 07:04:20;;;;;;;22.80;3.70;;;8.10;99.90;;;;;;4966014;28;37760;-79
2024/01/01 07:06:48;;;;;;;22.40;3.67;;;8.10;99.90;;;;;;4968466;28;37472;-78
2024/01/01 07:09:14;;;;;;;20.17;3.60;;;8.10;99.90;;;;;;4964768;28;37901;-80
2024/01/01 07:11:41;;;;;;;24.30;3.77;;;8.10;99.90;;;;;;4971233;28;38545;-79
2024/01/01 07:14:07;;;;;;;32.20;5.17;;;8.10;99.90;;;;;;4968290;28;37738;-79
2024/01/01 07:16:33;;;;;;;24.97;3.37;;;8.10;99.90;;;;;;4969119;28;38993;-79
2024/01/01 07:18:59;;;;;;;21.23;3.23;;;8.10;99.90;;;;;;4960864;28;37064;-79
2024/01/01 07:21:25;;;;;;;12.97;2.40;;;8.00;99.90;;;;;;4968678;28;35912;-78
2024/01/01 07:23:52;;;;;;;20.40;2.93;;;7.90;99.90;;;;;;4970299;28;39971;-79
2024/01/01 07:26:18;;;;;;;10.93;1.70;;;7.90;99.90;;;;;;4965354;28;37433;-78
2024/01/01 07:28:44;;;;;;;18.07;3.27;;;7.90;99.90;;;;;;4964617;28;37616;-79
2024/01/01 07:31:11;;;;;;;10.13;1.83;;;7.80;99.90;;;;;;4961067;28;37895;-78
2024/01/01 07:33:38;;;;;;;13.63;2.07;;;7.80;99.90;;;;;;4965099;28;37852;-79
2024/01/01 07:36:11;;;;;;;12.20;2.00;;;7.80;99.90;;;;;;4966532;28;38299;-78
2024/01/01 07:38:40;;;;;;;7.77;1.30;;;7.90;99.90;;;;;;4955603;28;38557;-78
2024/01/01 07:41:06;;;;;;;9.70;1.53;;;7.90;99.90;;;;;;4965805;28;38161;-78
2024/01/01 07:43:32;;;;;;;8.37;1.77;;;7.90;99.90;;;;;;4961002;28;37715;-78
2024/01/01 07:45:58;;;;;;;12.67;1.70;;;7.90;99.90;;;;;;4963261;28;39044;-78
2024/01/01 07:48:25;;;;;;;9.17;1.40;;;7.90;99.90;;;;;;4960264;28;37131;-77
2024/01/01 07:50:51;;;;;;;9.63;1.73;;;7.80;99.90;;;;;;4961475;28;37144;-78
2024/01/01 07:53:17;;;;;;;11.13;1.50;;;7.80;99.90;;;;;;4964772;28;37918;-79
2024/01/01 07:55:43;;;;;;;9.53;1.30;;;7.80;99.90;;;;;;4967451;28;38268;-78
2024/01/01 07:58:09;;;;;;;11.50;1.50;;;7.80;99.90;;;;;;4966406;28;36824;-79
2024/01/01 08:00:35;;;;;;;16.33;2.07;;;7.70;99.90;;;;;;4963689;28;37967;-78
2024/01/01 08:03:02;;;;;;;9.27;1.60;;;7.70;99.90;;;;;;4966568;28;40113;-78
2024/01/01 08:05:28;;;;;;;13.80;1.83;;;7.70;99.90;;;;;;4967633;28;39731;-78
2024/01/01 08:07:57;;;;;;;10.43;2.00;;;7.70;99.90;;;;;;4965652;28;39218;-79
2024/01/01 08:10:23;;;;;;;12.87;1.97;;;7.80;99.90;;;;;;4961924;28;37178;-78
2024/01/01 08:12:49;;;;;;;16.70;2.67;;;7.80;99.90;;;;;;4962327;28;39492;-78
2024/01/01 08:15:15;;;;;;;20.80;2.57;;;7.90;99.90;;;;;;4965417;28;39062;-78
2024/01/01 08:17:41;;;;;;;15.70;2.57;;;7.90;99.90;;;;;;4961925;28;39303;-78
2024/01/01 08:20:08;;;;;;;12.13;2.07;;;7.90;99.90;;;;;;4960712;28;36264;-78
2024/01/01 08:22:34;;;;;;;12.73;2.33;;;8.00;99.90;;;;;;4962938;28;40348;-78
2024/01/01 08:25:00;;;;;;;12.13;1.90;;;8.00;99.90;;;;;;4974355;28;39417;-78
2024/01/01 08:27:26;;;;;;;16.37;2.40;;;8.00;99.90;;;;;;4961333;28;37633;-78
2024/01/01 08:29:53;;;;;;;20.53;2.70;;;8.10;99.90;;;;;;4964998;28;38258;-79
2024/01/01 08:32:19;;;;;;;18.00;2.63;;;8.10;99.90;;;;;;4966382;28;39544;-78
2024/01/01 08:34:45;;;;;;;14.00;2.43;;;8.10;99.90;;;;;;4965885;28;39415;-78
2024/01/01 08:37:11;;;;;;;10.73;2.20;;;8.20;99.90;;;;;;4966546;28;38829;-78
2024/01/01 08:39:37;;;;;;;6.93;1.63;;;8.10;99.90;;;;;;4963584;28;36500;-78
2024/01/01 08:42:04;;;;;;;13.00;2.00;;;8.00;99.90;;;;;;4965361;28;39770;-78
2024/01/01 08:44:30;;;;;;;16.27;2.40;;;8.00;99.90;;;;;;4958054;28;39225;-78
2024/01/01 08:46:56;;;;;;;16.23;1.63;;;8.00;99.90;;;;;;4965922;28;38871;-78
2024/01/01 08:49:22;;;;;;;15.03;2.40;;;8.00;99.90;;;;;;4965855;28;38204;-79
2024/01/01 08:51:48;;;;;;;14.17;2.30;;;8.00;99.90;;;;;;4962464;28;39334;-79
2024/01/01 08:54:16;;;;;;;8.87;2.07;;;8.10;99.90;;;;;;4962711;28;37876;-78
2024/01/01 08:56:43;;;;;;;12.97;2.50;;;8.10;99.90;;;;;;4963560;28;37841;-78
2024/01/01 08:59:11;;;;;;;14.70;1.90;;;8.10;99.90;;;;;;4964653;28;36520;-78
2024/01/01 09:01:37;;;;;;;10.03;2.00;;;8.00;99.90;;;;;;4959829;28;38336;-79
2024/01/01 09:04:04;;;;;;;10.83;1.67;;;8.00;99.90;;;;;;4958207;28;37950;-78
2024/01/01 09:06:31;;;;;;;12.93;1.77;;;8.00;99.90;;;;;;4971595;28;37678;-78
2024/01/01 09:08:58;;;;;;;11.53;1.80;;;8.10;99.90;;;;;;4955953;28;38854;-79
2024/01/01 09:11:24;;;;;;;15.77;2.40;;;8.10;99.90;;;;;;4959441;28;39858;-78
2024/01/01 09:13:50;;;;;;;25.60;3.37;;;8.10;99.90;;;;;;4957666;28;37732;-79
2024/01/01 09:16:16;;;;;;;12.50;2.47;;;8.20;99.90;;;;;;4956566;28;38666;-79
2024/01/01 09:18:42;;;;;;;20.47;3.10;;;8.30;99.90;;;;;;4956820;28;38618;-78
2024/01/01 09:21:17;;;;;;;17.50;2.70;;;8.30;99.90;;;;;;4952340;28;40553;-78
2024/01/01 09:23:45;;;;;;;24.57;3.40;;;8.40;99.90;;;;;;4964588;28;38766;-79
2024/01/01 09:26:13;;;;;;;25.90;3.33;;;8.50;99.90;;;;;;4968738;28;37874;-78
2024/01/01 09:28:40;;;;;;;20.00;3.37;;;8.60;99.90;;;;;;4966244;28;38881;-78
2024/01/01 09:31:06;;;;;;;22.53;2.80;;;8.60;99.90;;;;;;4966701;28;38809;-79
2024/01/01 09:33:32;;;;;;;16.90;3.13;;;8.70;99.90;;;;;;4968356;28;38012;-79
2024/01/01 09:35:58;;;;;;;19.73;5.23;;;8.80;99.90;;;;;;4970512;28;39069;-78
2024/01/01 09:38:24;;;;;;;18.87;3.13;;;8.80;99.90;;;;;;4983723;28;38007;-79
2024/01/01 09:40:54;;;;;;;18.77;2.60;;;8.80;99.90;;;;;;4963973;28;39492;-79
2024/01/01 09:43:21;;;;;;;13.00;2.43;;;8.90;99.90;;;;;;4966938;28;38441;-80
2024/01/01 09:45:48;;;;;;;14.80;2.37;;;8.90;99.90;;;;;;4960564;28;38437;-80
2024/01/01 09:48:14;;;;;;;15.03;1.90;;;8.90;99.90;;;;;;4968157;28;37050;-79
2024/01/01 09:50:43;;;;;;;19.03;2.40;;;8.90;99.90;;;;;;4971358;28;39783;-79
2024/01/01 09:53:11;;;;;;;16.83;2.13;;;8.90;99.90;;;;;;4969949;28;37252;-80
2024/01/01 09:55:38;;;;;;;19.33;2.87;;;8.90;99.90;;;;;;4993248;28;38634;-79
2024/01/01 09:58:04;;;;;;;13.43;2.20;;;8.90;99.90;;;;;;4968818;28;38037;-80
2024/01/01 10:00:30;;;;;;;9.47;2.17;;;9.00;99.90;;;;;;4963315;28;38967;-80
2024/01/01 10:03:11;;;;;;;16.77;2.87;;;8.90;99.90;;;;;;4971951;28;36878;-80
2024/01/01 10:05:41;;;;;;;23.73;3.10;;;9.00;99.90;;;;;;4973765;28;47797;-80
2024/01/01 10:08:10;;;;;;;14.93;3.03;;;9.10;99.90;;;;;;4972919;28;36080;-80
2024/01/01 10:10:40;;;;;;;16.50;2.47;;;9.20;99.90;;;;;;4966959;28;39136;-81
2024/01/01 10:13:13;;;;;;;19.40;2.93;;;9.20;99.90;;;;;;4967543;28;37594;-80
2024/01/01 10:15:41;;;;;;;18.67;3.03;;;9.20;99.90;;;;;;4972068;28;40201;-81
2024/01/01 10:18:15;;;;;;;23.97;3.13;;;9.20;99.90;;;;;;4974967;28;37803;-81
2024/01/01 10:20:44;;;;;;;26.57;4.17;;;9.20;99.90;;;;;;4974740;28;38540;-80
2024/01/01 10:23:19;;;;;;;17.50;3.07;;;9.20;99.90;;;;;;4979811;28;37820;-81
2024/01/01 10:25:46;;;;;;;20.67;4.53;;;9.20;99.90;;;;;;4971169;28;38059;-81
2024/01/01 10:28:16;;;;;;;17.80;3.33;;;9.20;99.90;;;;;;4970947;28;37270;-81
2024/01/01 10:30:49;;;;;;;15.83;2.90;;;9.20;99.90;;;;;;4980906;28;38257;-81
2024/01/01 10:33:17;;;;;;;22.10;2.90;;;9.20;99.90;;;;;;4978533;28;37353;-81
2024/01/01 10:35:43;;;;;;;20.40;3.90;;;9.20;99.90;;;;;;4978632;28;37150;-80
2024/01/01 10:38:14;;;;;;;17.20;3.90;;;9.30;99.90;;;;;;4988122;28;37460;-81
2024/01/01 10:40:41;;;;;;;20.70;4.37;;;9.30;99.90;;;;;;4978208;28;38187;-82
2024/01/01 10:43:09;;;;;;;20.43;3.87;;;9.40;99.90;;;;;;4974389;28;37794;-81
2024/01/01 10:45:35;;;;;;;26.47;3.97;;;9.40;99.90;;;;;;4970900;28;37088;-81
2024/01/01 10:48:03;;;;;;;29.40;4.90;;;9.30;99.90;;;;;;4986770;28;38750;-81
2024/01/01 10:50:31;;;;;;;29.13;6.37;;;9.30;99.90;;;;;;4975747;28;37572;-80
2024/01/01 10:53:42;;;;;;;25.00;3.70;;;9.20;99.90;;;;;;4967566;28;37482;-81
2024/01/01 10:56:41;;;;;;;18.97;3.60;;;9.10;99.90;;;;;;4965565;28;48863;-80
2024/01/01 10:59:21;;;;;;;23.47;4.00;;;9.30;99.90;;;;;;4959047;28;36464;-80
2024/01/01 11:01:50;;;;;;;22.77;3.67;;;9.50;99.90;;;;;;4945413;28;38308;-79
2024/01/01 11:04:22;;;;;;;21.93;4.37;;;9.80;99.90;;;;;;4944680;28;37672;-80
2024/01/01 11:06:48;;;;;;;22.45;3.72;;;9.90;99.90;;;;;;4933965;28;37015;-79
2024/01/01 11:09:21;;;;;;;22.90;4.00;;;9.90;99.90;;;;;;4946200;28;35444;-79
2024/01/01 11:11:52;;;;;;;19.58;2.90;;;10.00;99.90;;;;;;4957103;28;37312;-80
2024/01/01 11:14:24;;;;;;;16.33;2.77;;;10.00;99.90;;;;;;4958687;28;38165;-81
2024/01/01 11:16:52;;;;;;;20.23;3.08;;;10.00;99.90;;;;;;4958522;28;36778;-81
2024/01/01 11:19:41;;;;;;;16.33;2.97;;;9.90;99.90;;;;;;4956534;28;36089;-78
2024/01/01 11:22:31;;;;;;;21.53;3.20;;;9.90;99.90;;;;;;4956297;28;37871;-81
2024/01/01 11:25:02;;;;;;;14.50;3.00;;;9.90;99.90;;;;;;4960489;28;38120;-78
2024/01/01 11:27:31;;;;;;;15.53;2.60;;;9.90;99.90;;;;;;4960709;28;37924;-80
2024/01/01 11:30:01;;;;;;;18.93;3.37;;;9.80;99.90;;;;;;4964074;28;36073;-79
2024/01/01 11:32:27;;;;;;;18.10;2.50;;;9.80;99.90;;;;;;4948426;28;38068;-77
2024/01/01 11:35:06;;;;;;;18.50;2.80;;;9.50;99.90;;;;;;4948897;28;38020;-77
2024/01/01 11:37:33;;;;;;;25.77;3.63;;;9.20;99.90;;;;;;4944854;28;46018;-78
2024/01/01 11:40:00;;;;;;;26.13;3.37;;;9.00;99.90;;;;;;4949831;28;36274;-77
2024/01/01 11:42:27;;;;;;;29.97;3.70;;;8.80;99.90;;;;;;4937978;28;39138;-77
2024/01/01 11:45:09;;;;;;;25.43;3.70;;;8.80;99.90;;;;;;4962065;28;36754;-78
2024/01/01 11:47:36;;;;;;;24.33;3.67;;;8.70;99.90;;;;;;4944814;28;47607;-77
2024/01/01 11:50:04;;;;;;;19.17;2.50;;;8.80;99.90;;;;;;4964922;28;38674;-78
2024/01/01 11:52:30;;;;;;;19.83;3.77;;;8.70;99.90;;;;;;4961527;28;39173;-77
2024/01/01 11:54:57;;;;;;;17.37;3.43;;;8.80;99.90;;;;;;4962429;28;38319;-80
2024/01/01 11:57:23;;;;;;;27.13;4.23;;;8.90;99.90;;;;;;4958601;28;39304;-77
2024/01/01 11:59:50;;;;;;;34.43;4.20;;;8.90;99.90;;;;;;4956487;28;35897;-78
2024/01/01 12:02:17;;;;;;;22.33;3.27;;;8.80;99.90;;;;;;4957310;28;40246;-79
2024/01/01 12:04:52;;;;;;;19.77;4.47;;;8.80;99.90;;;;;;4962144;28;37254;-78
2024/01/01 12:07:32;;;;;;;29.30;5.50;;;8.90;99.90;;;;;;4954197;28;38806;-77
2024/01/01 12:10:07;;;;;;;24.40;4.00;;;9.00;99.90;;;;;;4960214;28;38633;-79
2024/01/01 12:12:35;;;;;;;22.20;3.90;;;9.00;99.90;;;;;;4955509;28;47312;-77
2024/01/01 12:15:11;;;;;;;25.73;3.83;;;9.00;99.90;;;;;;4959256;28;37136;-77
2024/01/01 12:17:45;;;;;;;22.97;4.47;;;9.00;99.90;;;;;;4961588;28;46657;-77
2024/01/01 12:20:16;;;;;;;24.37;3.43;;;8.90;99.90;;;;;;4960534;28;36285;-77
2024/01/01 12:22:43;;;;;;;20.50;3.60;;;8.80;99.90;;;;;;4957807;28;39837;-78
2024/01/01 12:25:16;;;;;;;20.60;3.07;;;8.70;99.90;;;;;;4962380;28;37773;-78
2024/01/01 12:27:44;;;;;;;18.53;3.53;;;8.90;99.90;;;;;;4968658;28;37006;-77
2024/01/01 12:30:24;;;;;;;10.77;2.27;;;8.80;99.90;;;;;;4967816;28;36884;-79
2024/01/01 12:33:17;;;;;;;16.37;2.93;;;8.50;99.90;;;;;;4981008;28;38677;-77
2024/01/01 12:36:02;;;;;;;17.48;2.80;;;8.50;99.90;;;;;;4983183;28;47067;-77
2024/01/01 12:38:28;;;;;;;21.07;2.60;;;8.60;99.90;;;;;;4972075;28;47526;-78
2024/01/01 12:40:54;;;;;;;20.93;3.73;;;8.70;99.90;;;;;;4975934;28;35893;-76
2024/01/01 12:43:20;;;;;;;19.87;3.27;;;8.70;99.90;;;;;;4964393;28;38998;-76
2024/01/01 12:45:46;;;;;;;24.00;3.70;;;8.90;99.90;;;;;;4973676;28;38380;-79
2024/01/01 12:48:12;;;;;;;18.50;3.43;;;9.20;99.90;;;;;;4974679;28;38608;-77
2024/01/01 12:50:38;;;;;;;19.93;3.87;;;9.40;99.90;;;;;;4980937;28;37506;-77